Time,TemperatureF,DewpointF,PressureIn,WindDirection,WindDirectionDegrees,WindSpeedMPH,WindSpeedGustMPH,Humidity,HourlyPrecipIn,Conditions,Clouds,dailyrainin,SoftwareType,DateUTC
2013-02-23 00:03:00,35.0,35.0,-100.00,SW,225,4.0,8.0,98,-99.99,,,-99.99,,2013-02-23 05:03:00,
2013-02-23 00:12:00,35.0,35.0,-100.00,SSW,205,4.0,10.0,98,-99.99,,,-99.99,,2013-02-23 05:12:00,
2013-02-23 00:22:00,35.0,35.0,-100.00,SW,235,4.0,7.0,98,-99.99,,,-99.99,,2013-02-23 05:22:00,
2013-02-23 00:33:00,35.0,35.0,-100.00,SW,215,4.0,6.0,98,-99.99,,,-99.99,,2013-02-23 05:33:00,
2013-02-23 00:42:00,35.0,35.0,-100.00,SSW,195,4.0,8.0,98,-99.99,,,-99.99,,2013-02-23 05:42:00,
2013-02-23 00:52:00,35.0,35.0,-100.00,SSW,210,6.0,9.0,98,-99.99,,,-99.99,,2013-02-23 05:52:00,
2013-02-23 01:02:00,35.0,35.0,-100.00,SW,220,4.0,8.0,98,-99.99,,,-99.99,,2013-02-23 06:02:00,
2013-02-23 01:11:00,35.0,35.0,-100.00,SW,230,4.0,8.0,98,-99.99,,,-99.99,,2013-02-23 06:11:00,
2013-02-23 01:22:00,35.0,35.0,-100.00,SW,230,6.0,9.0,98,-99.99,,,-99.99,,2013-02-23 06:22:00,
2013-02-23 01:32:00,35.0,35.0,-100.00,West,260,6.0,10.0,98,-99.99,,,-99.99,,2013-02-23 06:32:00,
2013-02-23 01:42:00,35.0,35.0,-100.00,WSW,255,4.0,9.0,98,-99.99,,,-99.99,,2013-02-23 06:42:00,
2013-02-23 01:51:00,35.0,34.0,-100.00,WSW,240,4.0,7.0,98,-99.99,,,-99.99,,2013-02-23 06:51:00,
2013-02-23 02:01:00,35.0,34.0,-100.00,SW,225,5.0,7.0,98,-99.99,,,-99.99,,2013-02-23 07:01:00,
2013-02-23 02:11:00,35.0,34.0,-100.00,SW,215,4.0,9.0,98,-99.99,,,-99.99,,2013-02-23 07:11:00,
2013-02-23 02:21:00,35.0,34.0,-100.00,SW,230,5.0,11.0,98,-99.99,,,-99.99,,2013-02-23 07:21:00,
2013-02-23 02:32:00,35.0,34.0,-100.00,SW,230,5.0,11.0,98,-99.99,,,-99.99,,2013-02-23 07:32:00,
2013-02-23 02:42:00,34.0,34.0,-100.00,West,265,4.0,7.0,98,-99.99,,,-99.99,,2013-02-23 07:42:00,
2013-02-23 02:51:00,34.0,34.0,-100.00,WSW,240,6.0,9.0,98,-99.99,,,-99.99,,2013-02-23 07:51:00,
2013-02-23 03:01:00,34.0,33.0,-100.00,West,265,7.0,11.0,98,-99.99,,,-99.99,,2013-02-23 08:01:00,
2013-02-23 03:11:00,33.0,33.0,-100.00,West,265,9.0,14.0,98,-99.99,,,-99.99,,2013-02-23 08:11:00,
2013-02-23 03:21:00,33.0,33.0,-100.00,WNW,295,6.0,11.0,98,-99.99,,,-99.99,,2013-02-23 08:21:00,
2013-02-23 03:32:00,33.0,32.0,-100.00,WSW,255,8.0,14.0,98,-99.99,,,-99.99,,2013-02-23 08:32:00,
2013-02-23 03:42:00,32.0,32.0,-100.00,West,260,9.0,16.0,98,-99.99,,,-99.99,,2013-02-23 08:42:00,
2013-02-23 03:52:00,33.0,32.0,-100.00,WSW,245,6.0,13.0,98,-99.99,,,-99.99,,2013-02-23 08:52:00,
2013-02-23 04:02:00,32.0,32.0,-100.00,WSW,250,7.0,13.0,98,-99.99,,,-99.99,,2013-02-23 09:02:00,
2013-02-23 04:11:00,32.0,32.0,-100.00,WSW,250,7.0,12.0,98,-99.99,,,-99.99,,2013-02-23 09:11:00,
2013-02-23 04:21:00,32.0,32.0,-100.00,WSW,250,7.0,12.0,98,-99.99,,,-99.99,,2013-02-23 09:21:00,
2013-02-23 04:32:00,32.0,32.0,-100.00,West,260,9.0,15.0,97,-99.99,,,-99.99,,2013-02-23 09:32:00,
2013-02-23 04:42:00,32.0,32.0,-100.00,West,260,9.0,15.0,97,-99.99,,,-99.99,,2013-02-23 09:42:00,
2013-02-23 04:51:00,32.0,31.0,-100.00,West,280,6.0,16.0,95,-99.99,,,-99.99,,2013-02-23 09:51:00,
2013-02-23 05:01:00,32.0,30.0,-100.00,West,260,9.0,13.0,94,-99.99,,,-99.99,,2013-02-23 10:01:00,
2013-02-23 05:11:00,32.0,30.0,-100.00,West,270,7.0,12.0,93,-99.99,,,-99.99,,2013-02-23 10:11:00,
2013-02-23 05:21:00,31.0,29.0,-100.00,WNW,285,11.0,17.0,92,-99.99,,,-99.99,,2013-02-23 10:21:00,
2013-02-23 05:32:00,31.0,29.0,-100.00,West,270,8.0,19.0,90,-99.99,,,-99.99,,2013-02-23 10:32:00,
2013-02-23 05:42:00,31.0,29.0,-100.00,West,275,7.0,14.0,89,-99.99,,,-99.99,,2013-02-23 10:42:00,
2013-02-23 05:51:00,31.0,28.0,-100.00,WSW,240,5.0,10.0,89,-99.99,,,-99.99,,2013-02-23 10:51:00,
2013-02-23 06:02:00,31.0,28.0,-100.00,West,260,4.0,12.0,89,-99.99,,,-99.99,,2013-02-23 11:02:00,
2013-02-23 06:11:00,31.0,28.0,-100.00,West,280,7.0,11.0,88,-99.99,,,-99.99,,2013-02-23 11:11:00,
2013-02-23 06:22:00,31.0,28.0,-100.00,West,265,6.0,16.0,87,-99.99,,,-99.99,,2013-02-23 11:22:00,
2013-02-23 06:32:00,31.0,27.0,-100.00,WNW,285,7.0,15.0,85,-99.99,,,-99.99,,2013-02-23 11:32:00,
2013-02-23 06:42:00,31.0,27.0,-100.00,WSW,250,9.0,15.0,84,-99.99,,,-99.99,,2013-02-23 11:42:00,
2013-02-23 06:52:00,31.0,26.0,-100.00,West,280,9.0,16.0,83,-99.99,,,-99.99,,2013-02-23 11:52:00,
2013-02-23 07:02:00,31.0,26.0,-100.00,WSW,250,9.0,15.0,83,-99.99,,,-99.99,,2013-02-23 12:02:00,
2013-02-23 07:11:00,31.0,26.0,-100.00,West,265,7.0,16.0,82,-99.99,,,-99.99,,2013-02-23 12:11:00,
2013-02-23 07:21:00,31.0,26.0,-100.00,WSW,240,6.0,13.0,81,-99.99,,,-99.99,,2013-02-23 12:21:00,
2013-02-23 07:32:00,30.0,25.0,-100.00,WSW,250,8.0,12.0,81,-99.99,,,-99.99,,2013-02-23 12:32:00,
2013-02-23 07:42:00,31.0,25.0,-100.00,West,260,7.0,14.0,80,-99.99,,,-99.99,,2013-02-23 12:42:00,
2013-02-23 07:52:00,31.0,25.0,-100.00,WSW,240,11.0,18.0,80,-99.99,,,-99.99,,2013-02-23 12:52:00,
2013-02-23 08:01:00,30.0,25.0,-100.00,West,270,7.0,14.0,80,-99.99,,,-99.99,,2013-02-23 13:01:00,
2013-02-23 08:11:00,30.0,25.0,-100.00,West,265,6.0,11.0,80,-99.99,,,-99.99,,2013-02-23 13:11:00,
2013-02-23 08:22:00,30.0,25.0,-100.00,WSW,250,10.0,16.0,80,-99.99,,,-99.99,,2013-02-23 13:22:00,
2013-02-23 08:32:00,30.0,25.0,-100.00,WSW,255,4.0,12.0,80,-99.99,,,-99.99,,2013-02-23 13:32:00,
2013-02-23 08:42:00,30.0,25.0,-100.00,SW,235,7.0,12.0,80,-99.99,,,-99.99,,2013-02-23 13:42:00,
2013-02-23 08:52:00,30.0,25.0,-100.00,WSW,255,8.0,12.0,81,-99.99,,,-99.99,,2013-02-23 13:52:00,
2013-02-23 09:02:00,30.0,25.0,-100.00,West,280,7.0,13.0,80,-99.99,,,-99.99,,2013-02-23 14:02:00,
2013-02-23 09:11:00,31.0,26.0,-100.00,West,270,6.0,13.0,81,-99.99,,,-99.99,,2013-02-23 14:11:00,
2013-02-23 09:21:00,30.0,25.0,-100.00,WSW,255,8.0,16.0,81,-99.99,,,-99.99,,2013-02-23 14:21:00,
2013-02-23 09:32:00,31.0,26.0,-100.00,WSW,255,6.0,12.0,81,-99.99,,,-99.99,,2013-02-23 14:32:00,
2013-02-23 09:42:00,30.0,26.0,-100.00,West,260,7.0,14.0,81,-99.99,,,-99.99,,2013-02-23 14:42:00,
2013-02-23 09:52:00,30.0,25.0,-100.00,West,260,11.0,18.0,80,-99.99,,,-99.99,,2013-02-23 14:52:00,
2013-02-23 10:02:00,30.0,25.0,-100.00,WSW,255,6.0,14.0,80,-99.99,,,-99.99,,2013-02-23 15:02:00,
2013-02-23 10:11:00,30.0,24.0,-100.00,WSW,255,10.0,15.0,78,-99.99,,,-99.99,,2013-02-23 15:11:00,
2013-02-23 10:22:00,31.0,24.0,-100.00,West,260,9.0,16.0,77,-99.99,,,-99.99,,2013-02-23 15:22:00,
2013-02-23 10:32:00,31.0,24.0,-100.00,West,260,7.0,12.0,76,-99.99,,,-99.99,,2013-02-23 15:32:00,
2013-02-23 10:42:00,31.0,24.0,-100.00,WNW,285,7.0,14.0,75,-99.99,,,-99.99,,2013-02-23 15:42:00,
2013-02-23 10:51:00,31.0,24.0,-100.00,WSW,245,7.0,16.0,76,-99.99,,,-99.99,,2013-02-23 15:51:00,
2013-02-23 11:01:00,31.0,24.0,-100.00,West,260,10.0,17.0,76,-99.99,,,-99.99,,2013-02-23 16:01:00,
2013-02-23 11:11:00,31.0,24.0,-100.00,West,265,7.0,15.0,76,-99.99,,,-99.99,,2013-02-23 16:11:00,
2013-02-23 11:21:00,31.0,25.0,-100.00,WSW,255,6.0,10.0,75,-99.99,,,-99.99,,2013-02-23 16:21:00,
2013-02-23 11:32:00,31.0,24.0,-100.00,West,280,6.0,13.0,74,-99.99,,,-99.99,,2013-02-23 16:32:00,
2013-02-23 11:42:00,32.0,24.0,-100.00,West,260,10.0,17.0,73,-99.99,,,-99.99,,2013-02-23 16:42:00,
2013-02-23 11:51:00,32.0,24.0,-100.00,WNW,285,9.0,17.0,72,-99.99,,,-99.99,,2013-02-23 16:51:00,
2013-02-23 12:01:00,33.0,24.0,-100.00,West,280,9.0,14.0,71,-99.99,,,-99.99,,2013-02-23 17:01:00,
2013-02-23 12:11:00,32.0,23.0,-100.00,WSW,255,10.0,17.0,68,-99.99,,,-99.99,,2013-02-23 17:11:00,
2013-02-23 12:21:00,33.0,23.0,-100.00,WNW,285,9.0,16.0,66,-99.99,,,-99.99,,2013-02-23 17:21:00,
2013-02-23 12:32:00,33.0,22.0,-100.00,West,265,11.0,16.0,64,-99.99,,,-99.99,,2013-02-23 17:32:00,
2013-02-23 12:42:00,33.0,22.0,-100.00,West,265,11.0,16.0,64,-99.99,,,-99.99,,2013-02-23 17:42:00,
2013-02-23 12:52:00,33.0,22.0,-100.00,WSW,250,13.0,17.0,62,-99.99,,,-99.99,,2013-02-23 17:52:00,
2013-02-23 13:02:00,33.0,21.0,-100.00,WNW,285,10.0,18.0,62,-99.99,,,-99.99,,2013-02-23 18:02:00,
2013-02-23 13:12:00,33.0,22.0,-100.00,West,270,6.0,17.0,64,-99.99,,,-99.99,,2013-02-23 18:12:00,
2013-02-23 13:22:00,33.0,22.0,-100.00,WSW,250,11.0,16.0,64,-99.99,,,-99.99,,2013-02-23 18:22:00,
2013-02-23 13:32:00,33.0,22.0,-100.00,WSW,255,11.0,16.0,64,-99.99,,,-99.99,,2013-02-23 18:32:00,
2013-02-23 13:42:00,33.0,22.0,-100.00,West,280,6.0,15.0,65,-99.99,,,-99.99,,2013-02-23 18:42:00,
2013-02-23 13:52:00,33.0,23.0,-100.00,WNW,285,9.0,14.0,65,-99.99,,,-99.99,,2013-02-23 18:52:00,
2013-02-23 14:01:00,32.0,22.0,-100.00,West,275,11.0,16.0,66,-99.99,,,-99.99,,2013-02-23 19:01:00,
2013-02-23 14:11:00,33.0,23.0,-100.00,West,280,9.0,15.0,66,-99.99,,,-99.99,,2013-02-23 19:11:00,
2013-02-23 14:21:00,33.0,22.0,-100.00,West,275,9.0,15.0,66,-99.99,,,-99.99,,2013-02-23 19:21:00,
2013-02-23 14:32:00,32.0,23.0,-100.00,WSW,240,7.0,15.0,67,-99.99,,,-99.99,,2013-02-23 19:32:00,
2013-02-23 14:41:00,32.0,23.0,-100.00,West,260,7.0,16.0,68,-99.99,,,-99.99,,2013-02-23 19:41:00,
2013-02-23 14:52:00,32.0,23.0,-100.00,WSW,250,6.0,12.0,69,-99.99,,,-99.99,,2013-02-23 19:52:00,
2013-02-23 15:01:00,32.0,23.0,-100.00,WNW,285,8.0,17.0,68,-99.99,,,-99.99,,2013-02-23 20:01:00,
2013-02-23 15:11:00,31.0,23.0,-100.00,WNW,285,11.0,14.0,69,-99.99,,,-99.99,,2013-02-23 20:11:00,
2013-02-23 15:21:00,31.0,22.0,-100.00,WNW,290,11.0,19.0,68,-99.99,,,-99.99,,2013-02-23 20:21:00,
2013-02-23 15:32:00,32.0,22.0,-100.00,West,280,11.0,14.0,68,-99.99,,,-99.99,,2013-02-23 20:32:00,
2013-02-23 15:42:00,32.0,22.0,-100.00,WSW,255,7.0,17.0,67,-99.99,,,-99.99,,2013-02-23 20:42:00,
2013-02-23 15:52:00,32.0,22.0,-100.00,West,265,7.0,14.0,68,-99.99,,,-99.99,,2013-02-23 20:52:00,
2013-02-23 16:02:00,32.0,22.0,-100.00,West,265,7.0,14.0,68,-99.99,,,-99.99,,2013-02-23 21:02:00,
2013-02-23 16:11:00,32.0,23.0,-100.00,WNW,295,6.0,12.0,68,-99.99,,,-99.99,,2013-02-23 21:11:00,
2013-02-23 16:22:00,31.0,23.0,-100.00,WSW,240,7.0,14.0,69,-99.99,,,-99.99,,2013-02-23 21:22:00,
2013-02-23 16:32:00,31.0,23.0,-100.00,West,270,7.0,14.0,69,-99.99,,,-99.99,,2013-02-23 21:32:00,
2013-02-23 16:42:00,31.0,23.0,-100.00,WSW,250,9.0,13.0,70,-99.99,,,-99.99,,2013-02-23 21:42:00,
2013-02-23 16:51:00,31.0,23.0,-100.00,West,280,9.0,14.0,71,-99.99,,,-99.99,,2013-02-23 21:51:00,
2013-02-23 17:02:00,31.0,23.0,-100.00,West,275,5.0,13.0,71,-99.99,,,-99.99,,2013-02-23 22:02:00,
2013-02-23 17:11:00,31.0,24.0,-100.00,WNW,285,8.0,12.0,72,-99.99,,,-99.99,,2013-02-23 22:11:00,
2013-02-23 17:22:00,31.0,24.0,-100.00,WSW,255,6.0,12.0,73,-99.99,,,-99.99,,2013-02-23 22:22:00,
2013-02-23 17:32:00,31.0,24.0,-100.00,West,270,10.0,14.0,75,-99.99,,,-99.99,,2013-02-23 22:32:00,
2013-02-23 17:42:00,31.0,24.0,-100.00,West,275,6.0,12.0,76,-99.99,,,-99.99,,2013-02-23 22:42:00,
2013-02-23 17:51:00,31.0,24.0,-100.00,WSW,245,6.0,12.0,77,-99.99,,,-99.99,,2013-02-23 22:51:00,
2013-02-23 18:01:00,31.0,24.0,-100.00,West,270,6.0,12.0,76,-99.99,,,-99.99,,2013-02-23 23:01:00,
2013-02-23 18:11:00,31.0,24.0,-100.00,WNW,285,6.0,10.0,77,-99.99,,,-99.99,,2013-02-23 23:11:00,
2013-02-23 18:21:00,31.0,24.0,-100.00,SW,235,7.0,10.0,77,-99.99,,,-99.99,,2013-02-23 23:21:00,
2013-02-23 18:32:00,30.0,24.0,-100.00,SW,235,6.0,11.0,77,-99.99,,,-99.99,,2013-02-23 23:32:00,
2013-02-23 18:42:00,30.0,24.0,-100.00,West,270,3.0,9.0,77,-99.99,,,-99.99,,2013-02-23 23:42:00,
2013-02-23 18:52:00,30.0,24.0,-100.00,WNW,285,4.0,12.0,77,-99.99,,,-99.99,,2013-02-23 23:52:00,
2013-02-23 19:01:00,30.0,24.0,-100.00,WNW,290,8.0,15.0,77,-99.99,,,-99.99,,2013-02-24 00:01:00,
2013-02-23 19:11:00,30.0,24.0,-100.00,West,275,6.0,12.0,76,-99.99,,,-99.99,,2013-02-24 00:11:00,
2013-02-23 19:22:00,30.0,24.0,-100.00,WNW,285,5.0,12.0,77,-99.99,,,-99.99,,2013-02-24 00:22:00,
2013-02-23 19:32:00,30.0,24.0,-100.00,WSW,245,6.0,11.0,77,-99.99,,,-99.99,,2013-02-24 00:32:00,
2013-02-23 19:42:00,30.0,24.0,-100.00,West,270,6.0,12.0,77,-99.99,,,-99.99,,2013-02-24 00:42:00,
2013-02-23 19:52:00,30.0,24.0,-100.00,WNW,295,4.0,11.0,77,-99.99,,,-99.99,,2013-02-24 00:52:00,
2013-02-23 20:01:00,30.0,24.0,-100.00,West,280,6.0,9.0,77,-99.99,,,-99.99,,2013-02-24 01:01:00,
2013-02-23 20:11:00,30.0,24.0,-100.00,WNW,290,6.0,12.0,76,-99.99,,,-99.99,,2013-02-24 01:11:00,
2013-02-23 20:22:00,30.0,24.0,-100.00,WNW,295,7.0,12.0,76,-99.99,,,-99.99,,2013-02-24 01:22:00,
2013-02-23 20:32:00,30.0,24.0,-100.00,WNW,290,7.0,12.0,76,-99.99,,,-99.99,,2013-02-24 01:32:00,
2013-02-23 20:42:00,30.0,23.0,-100.00,WNW,295,5.0,12.0,75,-99.99,,,-99.99,,2013-02-24 01:42:00,
2013-02-23 20:51:00,30.0,23.0,-100.00,WNW,295,6.0,10.0,76,-99.99,,,-99.99,,2013-02-24 01:51:00,
2013-02-23 21:01:00,30.0,23.0,-100.00,WNW,295,6.0,10.0,76,-99.99,,,-99.99,,2013-02-24 02:01:00,
2013-02-23 21:11:00,30.0,23.0,-100.00,West,275,7.0,11.0,76,-99.99,,,-99.99,,2013-02-24 02:11:00,
2013-02-23 21:21:00,30.0,23.0,-100.00,NW,305,3.0,10.0,76,-99.99,,,-99.99,,2013-02-24 02:21:00,
2013-02-23 21:32:00,29.0,23.0,-100.00,NW,305,6.0,10.0,76,-99.99,,,-99.99,,2013-02-24 02:32:00,
2013-02-23 21:42:00,29.0,23.0,-100.00,WNW,300,6.0,13.0,75,-99.99,,,-99.99,,2013-02-24 02:42:00,
2013-02-23 21:52:00,29.0,22.0,-100.00,WNW,295,5.0,10.0,75,-99.99,,,-99.99,,2013-02-24 02:52:00,
2013-02-23 22:02:00,29.0,22.0,-100.00,WNW,290,9.0,13.0,74,-99.99,,,-99.99,,2013-02-24 03:02:00,
2013-02-23 22:11:00,29.0,22.0,-100.00,WNW,285,7.0,11.0,73,-99.99,,,-99.99,,2013-02-24 03:11:00,
2013-02-23 22:22:00,29.0,22.0,-100.00,WNW,290,4.0,9.0,73,-99.99,,,-99.99,,2013-02-24 03:22:00,
2013-02-23 22:32:00,29.0,22.0,-100.00,West,275,3.0,10.0,73,-99.99,,,-99.99,,2013-02-24 03:32:00,
2013-02-23 22:42:00,29.0,22.0,-100.00,West,270,3.0,6.0,74,-99.99,,,-99.99,,2013-02-24 03:42:00,
2013-02-23 22:52:00,29.0,22.0,-100.00,WSW,250,4.0,8.0,75,-99.99,,,-99.99,,2013-02-24 03:52:00,
2013-02-23 23:02:00,29.0,22.0,-100.00,West,260,3.0,6.0,75,-99.99,,,-99.99,,2013-02-24 04:02:00,
2013-02-23 23:11:00,29.0,23.0,-100.00,West,270,4.0,7.0,75,-99.99,,,-99.99,,2013-02-24 04:11:00,
2013-02-23 23:21:00,29.0,23.0,-100.00,West,260,6.0,9.0,76,-99.99,,,-99.99,,2013-02-24 04:21:00,
2013-02-23 23:32:00,29.0,23.0,-100.00,WNW,300,7.0,12.0,76,-99.99,,,-99.99,,2013-02-24 04:32:00,
2013-02-23 23:42:00,29.0,23.0,-100.00,WNW,295,7.0,12.0,77,-99.99,,,-99.99,,2013-02-24 04:42:00,
2013-02-23 23:52:00,29.0,23.0,-100.00,WNW,295,7.0,12.0,78,-99.99,,,-99.99,,2013-02-24 04:52:00,